James, Iowa
Current Conditions -  °F | °C
As of 5:52 AM on Friday 28 Nov 2014 (Local Time) from KSUX Reporting Station
Clear Clear  
Wind Chill: 15°   Ceiling: Unl
Heat Index: 25°   Visibility: 10mi
Dew Point: 20°   Wind: 10mph
Humidity: 81%   Direction: 150°SSE
Pressure: 29.89"   Gusts: 21mph
Location:  42.5567°N, 96.3605°W
Report Text: KSUX 281152Z 15009G18KT 10SM CLR M04/M07 A2989 RMK AO2 SLP137 T10391067 11039 21056 57028
Loading
Personal Weather Stations






























Interactive Weather Map New forecast layout! Learn more

10-Day Weather Forecast

Advertisements
Track Severe Weather on mobile